Time;durP1;ratioP1;P1;durP2;ratioP2;P2;SDS_P1;SDS_P2;PMS_P1;PMS_P2;Temp;Humidity;BMP_temperature;BMP_pressure;BME280_temperature;BME280_humidity;BME280_pressure;Samples;Min_cycle;Max_cycle;Signal;HPM_P1;HPM_P2
2023/08/18 00:01:23;;;;;;;1999.90;999.90;;;19.70;99.90;;;;;;5053960;28;20185;-72
2023/08/18 00:03:48;;;;;;;1999.90;999.90;;;19.70;99.90;;;;;;5054410;28;20211;-71
2023/08/18 00:06:14;;;;;;;1999.90;999.90;;;19.70;99.90;;;;;;5055448;28;20763;-71
2023/08/18 00:08:40;;;;;;;1999.90;999.90;;;19.70;99.90;;;;;;5054597;28;20554;-71
2023/08/18 00:11:05;;;;;;;1999.90;999.90;;;19.70;99.90;;;;;;5053702;28;20177;-71
2023/08/18 00:13:31;;;;;;;1999.90;999.90;;;19.60;99.90;;;;;;5054367;28;20200;-72
2023/08/18 00:15:57;;;;;;;1999.90;999.90;;;19.60;99.90;;;;;;5054362;28;20191;-72
2023/08/18 00:18:22;;;;;;;1999.90;999.90;;;19.60;99.90;;;;;;5054133;28;20537;-71
2023/08/18 00:20:50;;;;;;;1999.90;999.90;;;19.60;99.90;;;;;;5056718;28;20178;-69
2023/08/18 00:23:15;;;;;;;1999.90;999.90;;;19.50;99.90;;;;;;5064910;28;20188;-73
2023/08/18 00:25:41;;;;;;;1999.90;999.90;;;19.60;99.90;;;;;;5065562;28;20457;-70
2023/08/18 00:28:07;;;;;;;1999.90;999.90;;;19.50;99.90;;;;;;5065655;28;20173;-73
2023/08/18 00:30:32;;;;;;;1999.90;999.90;;;19.50;99.90;;;;;;5066133;28;20159;-73
2023/08/18 00:32:58;;;;;;;1999.90;999.90;;;19.50;99.90;;;;;;5064799;28;20435;-73
2023/08/18 00:35:24;;;;;;;1999.90;999.90;;;19.50;99.90;;;;;;5065382;28;20246;-73
2023/08/18 00:37:49;;;;;;;1999.90;999.90;;;19.40;99.90;;;;;;5065048;28;20182;-71
2023/08/18 00:40:16;;;;;;;1999.90;999.90;;;19.40;99.90;;;;;;5065017;28;20546;-73
2023/08/18 00:42:42;;;;;;;1999.90;999.90;;;19.40;99.90;;;;;;5064036;28;20172;-72
2023/08/18 00:45:08;;;;;;;1999.90;999.90;;;19.40;99.90;;;;;;5063816;28;20528;-71
2023/08/18 00:47:34;;;;;;;1999.90;999.90;;;19.40;99.90;;;;;;5064216;28;20174;-73
2023/08/18 00:50:01;;;;;;;1999.90;999.90;;;19.40;99.90;;;;;;5067608;28;20422;-73
2023/08/18 00:52:26;;;;;;;1999.90;999.90;;;19.40;99.90;;;;;;5063555;28;20412;-72
2023/08/18 00:54:52;;;;;;;1999.90;999.90;;;19.40;99.90;;;;;;5063060;28;20425;-72
2023/08/18 00:57:19;;;;;;;1999.90;999.90;;;19.20;99.90;;;;;;5064262;28;20197;-72
2023/08/18 00:59:46;;;;;;;1999.90;999.90;;;18.90;99.90;;;;;;5064690;28;20415;-73
2023/08/18 01:02:12;;;;;;;1999.90;999.90;;;18.80;99.90;;;;;;5063850;28;20451;-73
2023/08/18 01:04:38;;;;;;;1999.90;999.90;;;18.80;99.90;;;;;;5064473;28;21121;-73
2023/08/18 01:07:04;;;;;;;1999.90;999.90;;;18.80;99.90;;;;;;5063547;28;20412;-73
2023/08/18 01:09:30;;;;;;;1999.90;999.90;;;18.70;99.90;;;;;;5064037;28;20166;-73
2023/08/18 01:12:15;;;;;;;1999.90;999.90;;;18.50;99.90;;;;;;5063721;28;20434;-71
2023/08/18 01:14:54;;;;;;;1999.90;999.90;;;18.50;99.90;;;;;;5064793;28;20457;-72
2023/08/18 01:17:31;;;;;;;1999.90;999.90;;;18.50;99.90;;;;;;5065487;28;20495;-73
2023/08/18 01:19:58;;;;;;;1999.90;999.90;;;18.60;99.90;;;;;;5064655;28;20412;-72
2023/08/18 01:22:24;;;;;;;1999.90;999.90;;;18.60;99.90;;;;;;5063518;28;20444;-73
2023/08/18 01:24:50;;;;;;;1999.90;999.90;;;18.60;99.90;;;;;;5064587;28;20947;-73
2023/08/18 01:27:15;;;;;;;1999.90;999.90;;;18.60;99.90;;;;;;5064728;28;20406;-73
2023/08/18 01:29:41;;;;;;;1999.90;999.90;;;18.70;99.90;;;;;;5064515;28;20234;-72
2023/08/18 01:32:08;;;;;;;1999.90;999.90;;;18.70;99.90;;;;;;5063797;28;20176;-73
2023/08/18 01:34:39;;;;;;;1999.90;999.90;;;18.70;99.90;;;;;;5064303;28;20223;-73
2023/08/18 01:37:05;;;;;;;1999.90;999.90;;;18.70;99.90;;;;;;5063637;28;20399;-72
2023/08/18 01:39:33;;;;;;;1999.90;999.90;;;18.80;99.90;;;;;;5063334;28;20413;-73
2023/08/18 01:41:59;;;;;;;1999.90;999.90;;;18.80;99.90;;;;;;5063152;28;20202;-73
2023/08/18 01:44:24;;;;;;;1999.90;999.90;;;18.80;99.90;;;;;;5064153;28;20460;-73
2023/08/18 01:46:50;;;;;;;1999.90;999.90;;;18.80;99.90;;;;;;5064653;28;20411;-73
2023/08/18 01:49:15;;;;;;;1999.90;999.90;;;18.80;99.90;;;;;;5063871;28;20250;-73
2023/08/18 01:51:41;;;;;;;1999.90;999.90;;;18.70;99.90;;;;;;5063202;28;20174;-71
2023/08/18 01:54:08;;;;;;;1999.90;999.90;;;18.70;99.90;;;;;;5063985;28;20337;-72
2023/08/18 01:56:33;;;;;;;1999.90;999.90;;;18.70;99.90;;;;;;5061696;28;20180;-73
2023/08/18 01:58:59;;;;;;;1999.90;999.90;;;18.60;99.90;;;;;;5052536;28;20499;-71
2023/08/18 02:01:25;;;;;;;1999.90;999.90;;;18.50;99.90;;;;;;5051938;28;20641;-71
2023/08/18 02:03:52;;;;;;;1999.90;999.90;;;18.30;99.90;;;;;;5052219;28;20208;-71
2023/08/18 02:06:18;;;;;;;1999.90;999.90;;;18.20;99.90;;;;;;5052330;28;20402;-72
2023/08/18 02:08:44;;;;;;;1999.90;999.90;;;18.20;99.90;;;;;;5052506;28;20487;-71
2023/08/18 02:11:15;;;;;;;1999.90;999.90;;;18.10;99.90;;;;;;5050726;28;20404;-72
2023/08/18 02:13:41;;;;;;;1999.90;999.90;;;18.10;99.90;;;;;;5052251;28;20236;-71
2023/08/18 02:16:06;;;;;;;1999.90;999.90;;;18.10;99.90;;;;;;5052398;28;20489;-72
2023/08/18 02:18:32;;;;;;;1999.90;999.90;;;18.20;99.90;;;;;;5052213;28;20229;-72
2023/08/18 02:23:45;;;;;;;1999.90;999.90;;;18.20;99.90;;;;;;5052248;28;20267;-71
2023/08/18 02:26:11;;;;;;;1999.90;999.90;;;18.30;99.90;;;;;;5052075;28;20888;-71
2023/08/18 02:28:36;;;;;;;1999.90;999.90;;;18.30;99.90;;;;;;5051996;28;20182;-72
2023/08/18 02:31:07;;;;;;;1999.90;999.90;;;18.40;99.90;;;;;;5051286;28;20594;-73
2023/08/18 02:33:34;;;;;;;1999.90;999.90;;;18.30;99.90;;;;;;5052005;28;20253;-71
2023/08/18 02:36:00;;;;;;;1999.90;999.90;;;18.30;99.90;;;;;;5051912;28;20442;-71
2023/08/18 02:38:34;;;;;;;1999.90;999.90;;;18.30;99.90;;;;;;5052132;28;20459;-71
2023/08/18 02:40:59;;;;;;;1999.90;999.90;;;18.30;99.90;;;;;;5051263;28;20405;-71
2023/08/18 02:43:25;;;;;;;1999.90;999.90;;;18.30;99.90;;;;;;5051563;28;20417;-72
2023/08/18 02:45:57;;;;;;;1999.90;999.90;;;18.30;99.90;;;;;;5051845;28;20224;-72
2023/08/18 02:58:29;;;;;;;1999.90;999.90;;;18.30;99.90;;;;;;5051850;28;20370;-71
2023/08/18 03:01:00;;;;;;;1999.90;999.90;;;18.20;99.90;;;;;;5051708;28;20485;-72
2023/08/18 03:03:25;;;;;;;1999.90;999.90;;;18.20;99.90;;;;;;5052156;28;20396;-73
2023/08/18 03:05:51;;;;;;;1999.90;999.90;;;18.30;99.90;;;;;;5051850;28;20475;-73
2023/08/18 03:08:17;;;;;;;1999.90;999.90;;;18.30;99.90;;;;;;5051922;28;20676;-73
2023/08/18 03:10:42;;;;;;;1999.90;999.90;;;18.50;99.90;;;;;;5051826;28;20171;-73
2023/08/18 03:13:08;;;;;;;1999.90;999.90;;;18.50;99.90;;;;;;5051028;28;20181;-72
2023/08/18 03:15:39;;;;;;;1999.90;999.90;;;18.40;99.90;;;;;;5051721;28;20220;-73
2023/08/18 03:18:05;;;;;;;1999.90;999.90;;;18.50;99.90;;;;;;5052015;28;20182;-73
2023/08/18 03:20:30;;;;;;;1999.90;999.90;;;18.50;99.90;;;;;;5051821;28;20423;-73
2023/08/18 03:22:56;;;;;;;1999.90;999.90;;;18.60;99.90;;;;;;5054330;28;20186;-73
2023/08/18 03:25:22;;;;;;;1999.90;999.90;;;18.60;99.90;;;;;;5055345;28;20658;-73
2023/08/18 03:27:47;;;;;;;1999.90;999.90;;;18.70;99.90;;;;;;5055468;28;20257;-74
2023/08/18 03:30:13;;;;;;;1999.90;999.90;;;18.80;99.90;;;;;;5055178;28;20176;-71
2023/08/18 03:32:39;;;;;;;1999.90;999.90;;;18.80;99.90;;;;;;5054490;28;20271;-71
2023/08/18 03:35:05;;;;;;;1999.90;999.90;;;18.80;99.90;;;;;;5055170;28;20201;-71
2023/08/18 03:37:30;;;;;;;1999.90;999.90;;;18.90;99.90;;;;;;5055100;28;20605;-71
2023/08/18 03:39:56;;;;;;;1999.90;999.90;;;18.90;99.90;;;;;;5055112;28;20475;-73
2023/08/18 03:42:22;;;;;;;1999.90;999.90;;;18.90;99.90;;;;;;5054375;28;20602;-71
2023/08/18 03:44:48;;;;;;;1999.90;999.90;;;18.90;99.90;;;;;;5054875;28;20211;-71
2023/08/18 03:47:13;;;;;;;1999.90;999.90;;;18.90;99.90;;;;;;5054948;28;20416;-71
2023/08/18 03:49:39;;;;;;;1999.90;999.90;;;19.00;99.90;;;;;;5054940;28;20632;-72
2023/08/18 03:52:05;;;;;;;1999.90;999.90;;;19.00;99.90;;;;;;5054050;28;20174;-72
2023/08/18 03:54:30;;;;;;;1999.90;999.90;;;19.00;99.90;;;;;;5054759;28;20199;-74
2023/08/18 03:56:56;;;;;;;1999.90;999.90;;;19.00;99.90;;;;;;5054852;28;20793;-72
2023/08/18 03:59:22;;;;;;;1999.90;999.90;;;18.90;99.90;;;;;;5054703;28;20177;-71
2023/08/18 04:01:47;;;;;;;1999.90;999.90;;;18.90;99.90;;;;;;5054054;28;20273;-71
2023/08/18 04:04:13;;;;;;;1999.90;999.90;;;18.80;99.90;;;;;;5054605;28;20206;-72
2023/08/18 04:06:38;;;;;;;1999.90;999.90;;;18.80;99.90;;;;;;5054547;28;20214;-72
2023/08/18 04:09:06;;;;;;;1999.90;999.90;;;18.90;99.90;;;;;;5054569;28;20184;-71
2023/08/18 04:11:35;;;;;;;1999.90;999.90;;;18.90;99.90;;;;;;5053815;28;20628;-71
2023/08/18 04:14:02;;;;;;;1999.90;999.90;;;18.90;99.90;;;;;;5054499;28;20560;-71
2023/08/18 04:16:31;;;;;;;1999.90;999.90;;;18.90;99.90;;;;;;5054542;28;20847;-72
2023/08/18 04:18:57;;;;;;;1999.90;999.90;;;18.90;99.90;;;;;;5054478;28;20922;-71
2023/08/18 04:21:22;;;;;;;1999.90;999.90;;;18.90;99.90;;;;;;5053485;28;20504;-71
2023/08/18 04:23:48;;;;;;;1999.90;999.90;;;19.00;99.90;;;;;;5054131;28;20202;-71
2023/08/18 04:26:13;;;;;;;1999.90;999.90;;;19.00;99.90;;;;;;5054269;28;20178;-72
2023/08/18 04:28:39;;;;;;;1999.90;999.90;;;19.00;99.90;;;;;;5054238;28;20179;-74
2023/08/18 04:31:05;;;;;;;1999.90;999.90;;;19.00;99.90;;;;;;5053462;28;20172;-71
2023/08/18 04:33:30;;;;;;;1999.90;999.90;;;19.00;99.90;;;;;;5053202;28;20706;-71
2023/08/18 04:35:57;;;;;;;1999.90;999.90;;;19.00;99.90;;;;;;5054013;28;20178;-71
2023/08/18 04:38:22;;;;;;;1999.90;999.90;;;19.00;99.90;;;;;;5054390;28;20176;-72
2023/08/18 04:40:58;;;;;;;1999.90;999.90;;;19.00;99.90;;;;;;5053754;28;20789;-72
2023/08/18 04:43:24;;;;;;;1999.90;999.90;;;19.10;99.90;;;;;;5053716;28;20168;-71
2023/08/18 04:45:50;;;;;;;1999.90;999.90;;;19.10;99.90;;;;;;5053865;28;20537;-72
2023/08/18 04:48:16;;;;;;;1999.90;999.90;;;19.10;99.90;;;;;;5053818;28;20822;-71
2023/08/18 04:50:42;;;;;;;1999.90;999.90;;;19.10;99.90;;;;;;5053734;28;20660;-74
2023/08/18 04:53:07;;;;;;;1999.90;999.90;;;19.10;99.90;;;;;;5053118;28;20436;-71
2023/08/18 04:55:33;;;;;;;1999.90;999.90;;;19.10;99.90;;;;;;5053631;28;20192;-71
2023/08/18 04:57:59;;;;;;;1999.90;999.90;;;19.00;99.90;;;;;;5054020;28;20193;-71
2023/08/18 05:00:24;;;;;;;1999.90;999.90;;;19.10;99.90;;;;;;5053581;28;20768;-71
2023/08/18 05:02:51;;;;;;;1999.90;999.90;;;19.10;99.90;;;;;;5052824;28;20179;-71
2023/08/18 05:05:18;;;;;;;1999.90;999.90;;;19.10;99.90;;;;;;5053446;28;20632;-71
2023/08/18 05:07:43;;;;;;;1999.90;999.90;;;19.10;99.90;;;;;;5053485;28;20502;-71
2023/08/18 05:10:09;;;;;;;1999.90;999.90;;;19.10;99.90;;;;;;5053457;28;20620;-71
2023/08/18 05:12:35;;;;;;;1999.90;999.90;;;19.20;99.90;;;;;;5052629;28;20650;-71
2023/08/18 05:15:00;;;;;;;1999.90;999.90;;;19.20;99.90;;;;;;5053271;28;20202;-71
2023/08/18 05:17:26;;;;;;;1999.90;999.90;;;19.20;99.90;;;;;;5053235;28;20206;-71
2023/08/18 05:19:51;;;;;;;1999.90;999.90;;;19.20;99.90;;;;;;5053268;28;20621;-71
2023/08/18 05:22:17;;;;;;;1999.90;999.90;;;19.30;99.90;;;;;;5052489;28;20170;-71
2023/08/18 05:24:43;;;;;;;1999.90;999.90;;;19.20;99.90;;;;;;5053000;28;20231;-71
2023/08/18 05:27:08;;;;;;;1999.90;999.90;;;19.20;99.90;;;;;;5053271;28;20178;-71
2023/08/18 05:29:34;;;;;;;1999.90;999.90;;;19.30;99.90;;;;;;5053077;28;20211;-71
2023/08/18 05:31:59;;;;;;;1999.90;999.90;;;19.30;99.90;;;;;;5052253;28;20172;-72
2023/08/18 05:34:25;;;;;;;1999.90;999.90;;;19.30;99.90;;;;;;5052818;28;20205;-73
2023/08/18 05:36:51;;;;;;;1999.90;999.90;;;19.40;99.90;;;;;;5052911;28;20183;-71
2023/08/18 05:39:17;;;;;;;1999.90;999.90;;;19.40;99.90;;;;;;5052888;28;20759;-71
2023/08/18 05:41:44;;;;;;;1999.90;999.90;;;19.40;99.90;;;;;;5052365;28;20415;-71
2023/08/18 05:44:09;;;;;;;1999.90;999.90;;;19.40;99.90;;;;;;5052249;28;20223;-72
2023/08/18 05:46:35;;;;;;;1999.90;999.90;;;19.40;99.90;;;;;;5052620;28;20964;-71
2023/08/18 05:49:01;;;;;;;1999.90;999.90;;;19.40;99.90;;;;;;5052735;28;20186;-71
2023/08/18 05:51:26;;;;;;;1999.90;999.90;;;19.40;99.90;;;;;;5051970;28;20218;-71
2023/08/18 05:53:52;;;;;;;1999.90;999.90;;;19.50;99.90;;;;;;5052635;28;20423;-71
2023/08/18 05:56:17;;;;;;;1999.90;999.90;;;19.50;99.90;;;;;;5052606;28;20175;-74
2023/08/18 05:58:43;;;;;;;1999.90;999.90;;;19.50;99.90;;;;;;5052473;28;20175;-71
2023/08/18 06:01:09;;;;;;;1999.90;999.90;;;19.50;99.90;;;;;;5051849;28;20206;-71
2023/08/18 06:03:35;;;;;;;1999.90;999.90;;;19.50;99.90;;;;;;5052246;28;20306;-71
2023/08/18 06:06:00;;;;;;;1999.90;999.90;;;19.50;99.90;;;;;;5052401;28;20197;-71
2023/08/18 06:08:26;;;;;;;1999.90;999.90;;;19.50;99.90;;;;;;5052397;28;20250;-73
2023/08/18 06:10:52;;;;;;;1999.90;999.90;;;19.50;99.90;;;;;;5051933;28;20178;-71
2023/08/18 06:13:17;;;;;;;1999.90;999.90;;;19.60;99.90;;;;;;5057697;28;20175;-73
2023/08/18 06:15:43;;;;;;;1999.90;999.90;;;19.70;99.90;;;;;;5063115;28;20230;-73
2023/08/18 06:18:09;;;;;;;1999.90;999.90;;;19.70;99.90;;;;;;5063707;28;20175;-73
2023/08/18 06:20:35;;;;;;;1999.90;999.90;;;19.70;99.90;;;;;;5063251;28;20496;-73
2023/08/18 06:23:01;;;;;;;1999.90;999.90;;;19.80;99.90;;;;;;5062922;28;20176;-73
2023/08/18 06:25:27;;;;;;;1999.90;999.90;;;19.90;99.90;;;;;;5063914;28;20541;-72
2023/08/18 06:27:52;;;;;;;1999.90;999.90;;;20.00;99.90;;;;;;5063645;28;20169;-73
2023/08/18 06:30:18;;;;;;;1999.90;999.90;;;20.10;99.90;;;;;;5063444;28;20659;-73
2023/08/18 06:32:44;;;;;;;1999.90;999.90;;;20.10;99.90;;;;;;5062610;28;20598;-73
2023/08/18 06:35:10;;;;;;;1999.90;999.90;;;20.20;99.90;;;;;;5063855;28;20278;-73
2023/08/18 06:37:36;;;;;;;1999.90;999.90;;;20.10;99.90;;;;;;5053570;28;20438;-71
2023/08/18 06:40:02;;;;;;;1999.90;999.90;;;20.00;99.90;;;;;;5051829;28;20179;-71
2023/08/18 06:42:28;;;;;;;1999.90;999.90;;;20.00;99.90;;;;;;5051223;28;20313;-71
2023/08/18 06:44:53;;;;;;;1999.90;999.90;;;20.00;99.90;;;;;;5051794;28;21017;-71
2023/08/18 06:47:19;;;;;;;1999.90;999.90;;;20.10;99.90;;;;;;5051774;28;20175;-74
2023/08/18 06:49:44;;;;;;;1999.90;999.90;;;20.10;99.90;;;;;;5051919;28;20569;-71
2023/08/18 06:52:10;;;;;;;1999.90;999.90;;;20.20;99.90;;;;;;5051122;28;20175;-71
2023/08/18 06:54:36;;;;;;;1999.90;999.90;;;20.30;99.90;;;;;;5051657;28;20200;-71
2023/08/18 06:57:01;;;;;;;1999.90;999.90;;;20.30;99.90;;;;;;5054189;28;20254;-72
2023/08/18 06:59:27;;;;;;;1999.90;999.90;;;20.40;99.90;;;;;;5055894;28;20169;-71
2023/08/18 07:01:53;;;;;;;1999.90;999.90;;;20.30;99.90;;;;;;5055530;28;20236;-71
2023/08/18 07:04:19;;;;;;;1999.90;999.90;;;20.40;99.90;;;;;;5055801;28;20572;-71
2023/08/18 07:06:45;;;;;;;1999.90;999.90;;;20.40;99.90;;;;;;5055772;28;20410;-72
2023/08/18 07:09:12;;;;;;;1999.90;999.90;;;20.40;99.90;;;;;;5055786;28;20229;-72
2023/08/18 07:11:37;;;;;;;1999.90;999.90;;;20.40;99.90;;;;;;5054952;28;20420;-72
2023/08/18 07:14:03;;;;;;;1999.90;999.90;;;20.40;99.90;;;;;;5050416;28;20869;-72
2023/08/18 07:16:30;;;;;;;1999.90;999.90;;;20.50;99.90;;;;;;5049973;28;20273;-72
2023/08/18 07:18:55;;;;;;;1999.90;999.90;;;20.60;99.90;;;;;;5055510;28;20428;-72
2023/08/18 07:21:21;;;;;;;1999.90;999.90;;;20.70;99.90;;;;;;5054844;28;20414;-73
2023/08/18 07:23:46;;;;;;;1999.90;999.90;;;20.80;99.90;;;;;;5055287;28;20229;-73
2023/08/18 07:26:12;;;;;;;1999.90;999.90;;;20.80;99.90;;;;;;5055379;28;20217;-72
2023/08/18 07:28:38;;;;;;;1999.90;999.90;;;20.90;99.90;;;;;;5055405;28;20355;-72
2023/08/18 07:31:04;;;;;;;1999.90;999.90;;;21.00;99.90;;;;;;5054609;28;20181;-72
2023/08/18 07:33:31;;;;;;;1999.90;999.90;;;21.10;99.90;;;;;;5055184;28;20173;-72
2023/08/18 07:35:57;;;;;;;1999.90;999.90;;;21.10;99.90;;;;;;5055134;28;20404;-72
2023/08/18 07:38:23;;;;;;;1999.90;999.90;;;21.10;99.90;;;;;;5055343;28;20418;-72
2023/08/18 07:40:48;;;;;;;1999.90;999.90;;;21.20;99.90;;;;;;5055303;28;20770;-72
2023/08/18 07:43:14;;;;;;;1999.90;999.90;;;21.30;99.90;;;;;;5054412;28;20243;-72
2023/08/18 07:45:40;;;;;;;1999.90;999.90;;;21.40;99.90;;;;;;5054798;28;20416;-72
2023/08/18 07:48:05;;;;;;;1999.90;999.90;;;21.40;99.90;;;;;;5055067;28;20165;-72
2023/08/18 07:50:32;;;;;;;1999.90;999.90;;;21.60;99.90;;;;;;5055031;28;20182;-72
2023/08/18 07:52:58;;;;;;;1999.90;999.90;;;21.70;99.90;;;;;;5054199;28;20204;-73
2023/08/18 07:55:24;;;;;;;1999.90;999.90;;;21.70;99.90;;;;;;5054826;28;20845;-72
2023/08/18 07:57:50;;;;;;;1999.90;999.90;;;21.90;99.90;;;;;;5054771;28;20414;-73
2023/08/18 08:00:17;;;;;;;1999.90;999.90;;;22.00;99.90;;;;;;5054654;28;20181;-72
2023/08/18 08:02:46;;;;;;;1999.90;999.90;;;22.20;99.90;;;;;;5053943;28;20572;-73
2023/08/18 08:05:13;;;;;;;1999.90;999.90;;;22.20;99.90;;;;;;5054456;28;20471;-72
2023/08/18 08:07:40;;;;;;;1999.90;999.90;;;22.30;99.90;;;;;;5054530;28;20408;-72
2023/08/18 08:10:06;;;;;;;1999.90;999.90;;;22.40;99.90;;;;;;5054661;28;20758;-72
2023/08/18 08:12:34;;;;;;;1999.90;999.90;;;22.40;99.90;;;;;;5053794;28;20899;-72
2023/08/18 08:15:01;;;;;;;1999.90;999.90;;;22.50;99.90;;;;;;5054584;28;20429;-73
2023/08/18 08:17:29;;;;;;;1999.90;999.90;;;22.60;99.90;;;;;;5054740;28;20914;-72
2023/08/18 08:19:56;;;;;;;1999.90;999.90;;;22.60;99.90;;;;;;5054460;28;20417;-70
2023/08/18 08:22:22;;;;;;;1999.90;999.90;;;22.50;99.90;;;;;;5053592;28;20505;-72
2023/08/18 08:24:48;;;;;;;1999.90;999.90;;;22.60;99.90;;;;;;5053834;28;20507;-72
2023/08/18 08:27:15;;;;;;;1999.90;999.90;;;22.70;99.90;;;;;;5054169;28;20406;-73
2023/08/18 08:29:41;;;;;;;1999.90;999.90;;;22.80;99.90;;;;;;5054437;28;20550;-71
2023/08/18 08:32:07;;;;;;;1999.90;999.90;;;22.90;99.90;;;;;;5053538;28;20420;-71
2023/08/18 08:34:32;;;;;;;1999.90;999.90;;;22.90;99.90;;;;;;5054058;28;20430;-71
2023/08/18 08:36:58;;;;;;;1999.90;999.90;;;22.90;99.90;;;;;;5054127;28;20565;-72
2023/08/18 08:39:23;;;;;;;1999.90;999.90;;;22.90;99.90;;;;;;5054089;28;20167;-71
2023/08/18 08:41:49;;;;;;;1999.90;999.90;;;23.00;99.90;;;;;;5053273;28;20174;-71
2023/08/18 08:44:14;;;;;;;1999.90;999.90;;;23.10;99.90;;;;;;5053677;28;20243;-71
2023/08/18 08:46:41;;;;;;;1999.90;999.90;;;23.10;99.90;;;;;;5053936;28;20536;-70
2023/08/18 08:49:08;;;;;;;1999.90;999.90;;;23.10;99.90;;;;;;5053852;28;20171;-71
2023/08/18 08:51:37;;;;;;;1999.90;999.90;;;23.30;99.90;;;;;;5053377;28;20377;-71
2023/08/18 08:54:06;;;;;;;1999.90;999.90;;;23.40;99.90;;;;;;5054071;28;20405;-71
2023/08/18 08:56:34;;;;;;;1999.90;999.90;;;23.40;99.90;;;;;;5053671;28;20417;-71
2023/08/18 08:59:00;;;;;;;1999.90;999.90;;;23.40;99.90;;;;;;5054437;28;20395;-72
2023/08/18 09:01:26;;;;;;;1999.90;999.90;;;23.50;99.90;;;;;;5056265;28;20487;-71
2023/08/18 09:03:52;;;;;;;1999.90;999.90;;;23.50;99.90;;;;;;5053448;28;20399;-71
2023/08/18 09:06:18;;;;;;;1999.90;999.90;;;23.50;99.90;;;;;;5053542;28;20872;-71
2023/08/18 09:08:43;;;;;;;1999.90;999.90;;;23.50;99.90;;;;;;5053456;28;20392;-71
2023/08/18 09:11:09;;;;;;;1999.90;999.90;;;23.60;99.90;;;;;;5052686;28;20175;-71
2023/08/18 09:13:35;;;;;;;1999.90;999.90;;;23.70;99.90;;;;;;5061077;28;20550;-71
2023/08/18 09:16:06;;;;;;;1999.90;999.90;;;23.80;99.90;;;;;;5053456;28;20843;-71
2023/08/18 09:18:33;;;;;;;1999.90;999.90;;;23.80;99.90;;;;;;5052990;28;20397;-71
2023/08/18 09:21:04;;;;;;;1999.90;999.90;;;23.80;99.90;;;;;;5052374;28;20451;-71
2023/08/18 09:23:30;;;;;;;1999.90;999.90;;;24.10;99.90;;;;;;5053100;28;20380;-71
2023/08/18 09:25:59;;;;;;;1999.90;999.90;;;24.20;99.90;;;;;;5053025;28;20420;-71
2023/08/18 09:28:29;;;;;;;1999.90;999.90;;;24.30;99.90;;;;;;5053098;28;20180;-71
2023/08/18 09:30:54;;;;;;;1999.90;999.90;;;24.50;99.90;;;;;;5052648;28;20433;-71
2023/08/18 09:33:23;;;;;;;1999.90;999.90;;;24.60;99.90;;;;;;5052906;28;20887;-71
2023/08/18 09:35:57;;;;;;;1999.90;999.90;;;24.60;99.90;;;;;;5052797;28;20208;-71
2023/08/18 09:38:25;;;;;;;1999.90;999.90;;;24.80;99.90;;;;;;5056969;28;20405;-73
2023/08/18 09:40:56;;;;;;;1999.90;999.90;;;24.90;99.90;;;;;;5058663;28;20907;-73
2023/08/18 09:43:24;;;;;;;1999.90;999.90;;;25.00;99.90;;;;;;5058851;28;20835;-73
2023/08/18 09:45:52;;;;;;;1999.90;999.90;;;25.10;99.90;;;;;;5059202;28;20461;-73
2023/08/18 09:48:19;;;;;;;1999.90;999.90;;;25.20;99.90;;;;;;5059049;28;20472;-73
2023/08/18 09:50:49;;;;;;;1999.90;999.90;;;25.40;99.90;;;;;;5058266;28;20369;-73
2023/08/18 09:53:15;;;;;;;1999.90;999.90;;;25.50;99.90;;;;;;5058922;28;20381;-73
2023/08/18 09:55:44;;;;;;;1999.90;999.90;;;25.60;99.90;;;;;;5058742;28;20442;-73
2023/08/18 09:58:33;;;;;;;1999.90;999.90;;;25.80;99.90;;;;;;5059133;28;20412;-73
2023/08/18 10:00:59;;;;;;;1999.90;999.90;;;25.70;99.90;;;;;;5059832;28;20399;-72
2023/08/18 10:03:26;;;;;;;1999.90;999.90;;;25.70;99.90;;;;;;5060479;28;20560;-70
2023/08/18 10:05:53;;;;;;;1999.90;999.90;;;25.80;99.90;;;;;;5060709;28;20204;-73
2023/08/18 10:08:22;;;;;;;1999.90;999.90;;;25.60;99.90;;;;;;5061652;28;20369;-72
2023/08/18 10:10:49;;;;;;;1999.90;999.90;;;25.50;99.90;;;;;;5061876;28;20406;-73
2023/08/18 10:13:15;;;;;;;1999.90;999.90;;;25.60;99.90;;;;;;5057386;28;20460;-72
2023/08/18 10:15:41;;;;;;;1999.90;999.90;;;25.50;99.90;;;;;;5061010;28;20426;-71
2023/08/18 10:18:09;;;;;;;1999.90;999.90;;;25.50;99.90;;;;;;5061825;28;20167;-70
2023/08/18 10:20:35;;;;;;;1999.90;999.90;;;25.60;99.90;;;;;;5058497;28;20486;-71
2023/08/18 10:23:02;;;;;;;1999.90;999.90;;;25.70;99.90;;;;;;5051332;28;20767;-68
2023/08/18 10:25:29;;;;;;;1999.90;999.90;;;25.70;99.90;;;;;;5050386;28;20547;-69
2023/08/18 10:27:56;;;;;;;1999.90;999.90;;;25.80;99.90;;;;;;5051112;28;20955;-70
2023/08/18 10:30:26;;;;;;;1999.90;999.90;;;26.00;99.90;;;;;;5050433;28;20410;-70
2023/08/18 10:32:54;;;;;;;1999.90;999.90;;;26.00;99.90;;;;;;5049947;28;20432;-69
2023/08/18 10:35:22;;;;;;;1999.90;999.90;;;26.20;99.90;;;;;;5050502;28;20517;-70
2023/08/18 10:38:10;;;;;;;1999.90;999.90;;;26.40;99.90;;;;;;5051559;28;20384;-71
2023/08/18 10:40:37;;;;;;;1999.90;999.90;;;26.50;99.90;;;;;;5051387;28;20384;-71
2023/08/18 10:43:08;;;;;;;1999.90;999.90;;;26.60;99.90;;;;;;5050333;28;20925;-71
2023/08/18 10:45:34;;;;;;;1999.90;999.90;;;26.70;99.90;;;;;;5050760;28;20497;-71
2023/08/18 10:48:03;;;;;;;1999.90;999.90;;;26.80;99.90;;;;;;5051537;28;20369;-71
2023/08/18 10:50:31;;;;;;;1999.90;999.90;;;26.90;99.90;;;;;;5051342;28;20387;-71
2023/08/18 10:52:57;;;;;;;1999.90;999.90;;;26.90;99.90;;;;;;5050262;28;20398;-71
2023/08/18 10:55:24;;;;;;;1999.90;999.90;;;26.70;99.90;;;;;;5051330;28;20483;-71
2023/08/18 10:57:50;;;;;;;1999.90;999.90;;;26.80;99.90;;;;;;5050852;28;20430;-71
2023/08/18 11:00:18;;;;;;;1999.90;999.90;;;26.90;99.90;;;;;;5051415;28;20898;-71
2023/08/18 11:02:49;;;;;;;1999.90;999.90;;;26.90;99.90;;;;;;5050686;28;20175;-71
2023/08/18 11:05:20;;;;;;;1999.90;999.90;;;26.70;99.90;;;;;;5050883;28;20429;-71
2023/08/18 11:07:47;;;;;;;1999.90;999.90;;;26.90;99.90;;;;;;5051635;28;20452;-69
2023/08/18 11:10:20;;;;;;;1999.90;999.90;;;27.20;99.90;;;;;;5051310;28;20455;-69
2023/08/18 11:12:47;;;;;;;1999.90;999.90;;;27.40;99.90;;;;;;5042605;28;20809;-71
2023/08/18 11:15:14;;;;;;;1999.90;999.90;;;27.60;99.90;;;;;;5050068;28;20982;-69
2023/08/18 11:17:41;;;;;;;1999.90;999.90;;;27.90;99.90;;;;;;5051240;28;20468;-69
2023/08/18 11:20:08;;;;;;;1999.90;999.90;;;28.10;99.90;;;;;;5050713;28;20377;-71
2023/08/18 11:22:41;;;;;;;1999.90;999.90;;;28.40;99.90;;;;;;5050454;28;20501;-71
2023/08/18 11:25:08;;;;;;;1999.90;999.90;;;28.60;99.90;;;;;;5050516;28;20491;-69
2023/08/18 11:27:34;;;;;;;1999.90;999.90;;;28.80;99.90;;;;;;5050838;28;20422;-69
2023/08/18 11:30:04;;;;;;;1999.90;999.90;;;29.00;99.90;;;;;;5051098;28;20376;-69
2023/08/18 11:32:30;;;;;;;1999.90;999.90;;;29.20;99.90;;;;;;5050259;28;20456;-69
2023/08/18 11:34:56;;;;;;;1999.90;999.90;;;29.20;99.90;;;;;;5050764;28;20393;-69
2023/08/18 11:37:22;;;;;;;1999.90;999.90;;;29.30;99.90;;;;;;5049865;28;20176;-71
2023/08/18 11:39:49;;;;;;;1999.90;999.90;;;29.40;99.90;;;;;;5050761;28;20262;-69
2023/08/18 11:42:15;;;;;;;1999.90;999.90;;;29.40;99.90;;;;;;5053738;28;20481;-71
2023/08/18 11:44:41;;;;;;;1999.90;999.90;;;29.50;99.90;;;;;;5061726;28;20547;-71
2023/08/18 11:47:08;;;;;;;1999.90;999.90;;;29.70;99.90;;;;;;5061956;28;20398;-70
2023/08/18 11:49:35;;;;;;;1999.90;999.90;;;29.80;99.90;;;;;;5062200;28;20413;-71
2023/08/18 11:52:05;;;;;;;1999.90;999.90;;;29.70;99.90;;;;;;5060962;28;20410;-69
2023/08/18 11:54:35;;;;;;;1999.90;999.90;;;29.80;99.90;;;;;;5061429;28;20426;-73
2023/08/18 11:57:03;;;;;;;1999.90;999.90;;;30.00;99.90;;;;;;5060664;28;20414;-71
2023/08/18 11:59:29;;;;;;;1999.90;999.90;;;30.40;99.90;;;;;;5061735;28;20389;-72
2023/08/18 12:02:04;;;;;;;1999.90;999.90;;;30.90;99.90;;;;;;5060590;28;20495;-71
2023/08/18 12:04:31;;;;;;;1999.90;999.90;;;31.70;99.90;;;;;;5062263;28;20290;-71
2023/08/18 12:06:57;;;;;;;1999.90;999.90;;;32.50;99.90;;;;;;5063423;28;20413;-71
2023/08/18 12:09:23;;;;;;;1999.90;999.90;;;33.20;99.90;;;;;;5064482;28;20434;-71